sensor_id;sensor_type;location;lat;lon;timestamp;P1;durP1;ratioP1;P2;durP2;ratioP2
38609;SDS011;24367;51.640;9.566;2023-11-21T00:00:40;5.32;;;3.70;;
38609;SDS011;24367;51.640;9.566;2023-11-21T00:03:06;4.47;;;3.53;;
38609;SDS011;24367;51.640;9.566;2023-11-21T00:05:33;4.78;;;3.75;;
38609;SDS011;24367;51.640;9.566;2023-11-21T00:08:00;5.00;;;3.80;;
38609;SDS011;24367;51.640;9.566;2023-11-21T00:10:27;6.28;;;3.92;;
38609;SDS011;24367;51.640;9.566;2023-11-21T00:12:55;5.80;;;3.90;;
38609;SDS011;24367;51.640;9.566;2023-11-21T00:15:21;5.15;;;3.85;;
38609;SDS011;24367;51.640;9.566;2023-11-21T00:17:48;5.57;;;3.95;;
38609;SDS011;24367;51.640;9.566;2023-11-21T00:20:14;4.85;;;3.78;;
38609;SDS011;24367;51.640;9.566;2023-11-21T00:22:41;5.13;;;3.63;;
38609;SDS011;24367;51.640;9.566;2023-11-21T00:25:08;5.03;;;3.33;;
38609;SDS011;24367;51.640;9.566;2023-11-21T00:27:35;6.90;;;3.85;;
38609;SDS011;24367;51.640;9.566;2023-11-21T00:30:03;6.57;;;3.85;;
38609;SDS011;24367;51.640;9.566;2023-11-21T00:32:32;5.82;;;3.60;;
38609;SDS011;24367;51.640;9.566;2023-11-21T00:34:59;5.70;;;3.47;;
38609;SDS011;24367;51.640;9.566;2023-11-21T00:37:27;4.40;;;3.20;;
38609;SDS011;24367;51.640;9.566;2023-11-21T00:39:54;4.68;;;3.45;;
38609;SDS011;24367;51.640;9.566;2023-11-21T00:42:21;4.15;;;3.15;;
38609;SDS011;24367;51.640;9.566;2023-11-21T00:44:47;6.63;;;3.60;;
38609;SDS011;24367;51.640;9.566;2023-11-21T00:47:15;4.57;;;3.20;;
38609;SDS011;24367;51.640;9.566;2023-11-21T00:49:42;4.10;;;3.17;;
38609;SDS011;24367;51.640;9.566;2023-11-21T00:52:08;4.88;;;3.50;;
38609;SDS011;24367;51.640;9.566;2023-11-21T00:54:35;6.03;;;3.33;;
38609;SDS011;24367;51.640;9.566;2023-11-21T00:57:02;6.10;;;3.63;;
38609;SDS011;24367;51.640;9.566;2023-11-21T00:59:28;5.70;;;2.83;;
38609;SDS011;24367;51.640;9.566;2023-11-21T01:01:55;5.38;;;3.45;;
38609;SDS011;24367;51.640;9.566;2023-11-21T01:04:27;4.95;;;3.38;;
38609;SDS011;24367;51.640;9.566;2023-11-21T01:06:53;6.05;;;3.38;;
38609;SDS011;24367;51.640;9.566;2023-11-21T01:09:21;4.93;;;3.45;;
38609;SDS011;24367;51.640;9.566;2023-11-21T01:11:47;4.40;;;3.45;;
38609;SDS011;24367;51.640;9.566;2023-11-21T01:14:14;3.92;;;3.20;;
38609;SDS011;24367;51.640;9.566;2023-11-21T01:16:42;5.35;;;3.38;;
38609;SDS011;24367;51.640;9.566;2023-11-21T01:19:09;4.93;;;2.58;;
38609;SDS011;24367;51.640;9.566;2023-11-21T01:21:37;5.20;;;2.95;;
38609;SDS011;24367;51.640;9.566;2023-11-21T01:24:04;3.75;;;2.78;;
38609;SDS011;24367;51.640;9.566;2023-11-21T01:26:32;4.35;;;3.33;;
38609;SDS011;24367;51.640;9.566;2023-11-21T01:28:59;4.57;;;3.42;;
38609;SDS011;24367;51.640;9.566;2023-11-21T01:31:25;4.13;;;2.83;;
38609;SDS011;24367;51.640;9.566;2023-11-21T01:33:54;4.63;;;3.13;;
38609;SDS011;24367;51.640;9.566;2023-11-21T01:36:21;4.50;;;3.08;;
38609;SDS011;24367;51.640;9.566;2023-11-21T01:38:49;3.90;;;3.20;;
38609;SDS011;24367;51.640;9.566;2023-11-21T01:41:15;3.80;;;3.08;;
38609;SDS011;24367;51.640;9.566;2023-11-21T01:43:42;5.07;;;3.22;;
38609;SDS011;24367;51.640;9.566;2023-11-21T01:46:08;4.80;;;3.05;;
38609;SDS011;24367;51.640;9.566;2023-11-21T01:48:35;4.53;;;3.38;;
38609;SDS011;24367;51.640;9.566;2023-11-21T01:51:03;3.75;;;2.90;;
38609;SDS011;24367;51.640;9.566;2023-11-21T01:53:30;3.92;;;3.00;;
38609;SDS011;24367;51.640;9.566;2023-11-21T01:55:58;4.07;;;3.03;;
38609;SDS011;24367;51.640;9.566;2023-11-21T01:58:25;4.60;;;2.85;;
38609;SDS011;24367;51.640;9.566;2023-11-21T02:00:52;4.00;;;2.80;;
38609;SDS011;24367;51.640;9.566;2023-11-21T02:03:20;3.60;;;2.83;;
38609;SDS011;24367;51.640;9.566;2023-11-21T02:05:47;4.10;;;3.03;;
38609;SDS011;24367;51.640;9.566;2023-11-21T02:08:14;3.92;;;2.90;;
38609;SDS011;24367;51.640;9.566;2023-11-21T02:10:42;3.72;;;2.75;;
38609;SDS011;24367;51.640;9.566;2023-11-21T02:13:10;4.60;;;2.97;;
38609;SDS011;24367;51.640;9.566;2023-11-21T02:15:36;3.42;;;2.63;;
38609;SDS011;24367;51.640;9.566;2023-11-21T02:18:03;4.38;;;3.00;;
38609;SDS011;24367;51.640;9.566;2023-11-21T02:20:31;4.47;;;3.10;;
38609;SDS011;24367;51.640;9.566;2023-11-21T02:23:01;3.80;;;2.47;;
38609;SDS011;24367;51.640;9.566;2023-11-21T02:25:29;4.35;;;2.70;;
38609;SDS011;24367;51.640;9.566;2023-11-21T02:27:56;4.10;;;2.80;;
38609;SDS011;24367;51.640;9.566;2023-11-21T02:30:24;4.28;;;2.60;;
38609;SDS011;24367;51.640;9.566;2023-11-21T02:32:52;4.28;;;3.00;;
38609;SDS011;24367;51.640;9.566;2023-11-21T02:35:19;4.90;;;2.25;;
38609;SDS011;24367;51.640;9.566;2023-11-21T02:37:46;3.60;;;2.75;;
38609;SDS011;24367;51.640;9.566;2023-11-21T02:40:14;4.22;;;2.60;;
38609;SDS011;24367;51.640;9.566;2023-11-21T02:42:42;3.40;;;2.58;;
38609;SDS011;24367;51.640;9.566;2023-11-21T02:45:10;4.30;;;2.90;;
38609;SDS011;24367;51.640;9.566;2023-11-21T02:47:38;3.67;;;2.70;;
38609;SDS011;24367;51.640;9.566;2023-11-21T02:50:04;3.55;;;2.63;;
38609;SDS011;24367;51.640;9.566;2023-11-21T02:52:33;3.38;;;2.40;;
38609;SDS011;24367;51.640;9.566;2023-11-21T02:55:00;4.60;;;2.70;;
38609;SDS011;24367;51.640;9.566;2023-11-21T02:57:28;3.55;;;2.38;;
38609;SDS011;24367;51.640;9.566;2023-11-21T02:59:55;3.50;;;2.50;;
38609;SDS011;24367;51.640;9.566;2023-11-21T03:02:21;3.47;;;2.53;;
38609;SDS011;24367;51.640;9.566;2023-11-21T03:04:48;3.97;;;2.75;;
38609;SDS011;24367;51.640;9.566;2023-11-21T03:07:15;3.40;;;2.22;;
38609;SDS011;24367;51.640;9.566;2023-11-21T03:09:41;5.03;;;2.40;;
38609;SDS011;24367;51.640;9.566;2023-11-21T03:12:09;3.15;;;1.90;;
38609;SDS011;24367;51.640;9.566;2023-11-21T03:14:38;3.42;;;2.10;;
38609;SDS011;24367;51.640;9.566;2023-11-21T03:17:05;3.25;;;2.35;;
38609;SDS011;24367;51.640;9.566;2023-11-21T03:19:31;3.88;;;2.13;;
38609;SDS011;24367;51.640;9.566;2023-11-21T03:21:58;3.30;;;2.10;;
38609;SDS011;24367;51.640;9.566;2023-11-21T03:24:25;4.00;;;2.45;;
38609;SDS011;24367;51.640;9.566;2023-11-21T03:26:51;3.28;;;2.40;;
38609;SDS011;24367;51.640;9.566;2023-11-21T03:29:18;3.55;;;2.47;;
38609;SDS011;24367;51.640;9.566;2023-11-21T03:31:46;3.65;;;2.50;;
38609;SDS011;24367;51.640;9.566;2023-11-21T03:34:14;3.10;;;1.98;;
38609;SDS011;24367;51.640;9.566;2023-11-21T03:36:43;3.38;;;2.40;;
38609;SDS011;24367;51.640;9.566;2023-11-21T03:39:20;3.10;;;2.08;;
38609;SDS011;24367;51.640;9.566;2023-11-21T03:41:48;3.42;;;2.53;;
38609;SDS011;24367;51.640;9.566;2023-11-21T03:44:16;3.10;;;2.33;;
38609;SDS011;24367;51.640;9.566;2023-11-21T03:46:45;6.53;;;2.40;;
38609;SDS011;24367;51.640;9.566;2023-11-21T03:49:12;3.08;;;2.20;;
38609;SDS011;24367;51.640;9.566;2023-11-21T03:51:40;3.38;;;2.40;;
38609;SDS011;24367;51.640;9.566;2023-11-21T03:54:06;3.67;;;2.35;;
38609;SDS011;24367;51.640;9.566;2023-11-21T03:56:32;3.42;;;2.42;;
38609;SDS011;24367;51.640;9.566;2023-11-21T03:58:59;3.53;;;2.22;;
38609;SDS011;24367;51.640;9.566;2023-11-21T04:01:25;4.25;;;2.17;;
38609;SDS011;24367;51.640;9.566;2023-11-21T04:03:53;2.70;;;2.00;;
38609;SDS011;24367;51.640;9.566;2023-11-21T04:06:20;3.30;;;1.98;;
38609;SDS011;24367;51.640;9.566;2023-11-21T04:08:46;2.70;;;2.10;;
38609;SDS011;24367;51.640;9.566;2023-11-21T04:11:13;2.92;;;2.17;;
38609;SDS011;24367;51.640;9.566;2023-11-21T04:13:41;2.60;;;1.98;;
38609;SDS011;24367;51.640;9.566;2023-11-21T04:16:08;2.60;;;1.98;;
38609;SDS011;24367;51.640;9.566;2023-11-21T04:18:35;2.85;;;1.88;;
38609;SDS011;24367;51.640;9.566;2023-11-21T04:21:04;2.72;;;1.92;;
38609;SDS011;24367;51.640;9.566;2023-11-21T04:23:31;2.88;;;2.00;;
38609;SDS011;24367;51.640;9.566;2023-11-21T04:25:57;2.83;;;1.90;;
38609;SDS011;24367;51.640;9.566;2023-11-21T04:28:24;2.83;;;1.90;;
38609;SDS011;24367;51.640;9.566;2023-11-21T04:30:50;3.05;;;2.17;;
38609;SDS011;24367;51.640;9.566;2023-11-21T04:33:17;2.83;;;1.85;;
38609;SDS011;24367;51.640;9.566;2023-11-21T04:35:43;2.97;;;2.00;;
38609;SDS011;24367;51.640;9.566;2023-11-21T04:38:11;2.88;;;2.13;;
38609;SDS011;24367;51.640;9.566;2023-11-21T04:40:38;2.83;;;1.90;;
38609;SDS011;24367;51.640;9.566;2023-11-21T04:43:04;3.67;;;1.92;;
38609;SDS011;24367;51.640;9.566;2023-11-21T04:45:31;2.55;;;1.83;;
38609;SDS011;24367;51.640;9.566;2023-11-21T04:47:57;2.88;;;2.00;;
38609;SDS011;24367;51.640;9.566;2023-11-21T04:50:24;2.75;;;1.73;;
38609;SDS011;24367;51.640;9.566;2023-11-21T04:52:52;3.95;;;2.20;;
38609;SDS011;24367;51.640;9.566;2023-11-21T04:55:20;2.83;;;1.80;;
38609;SDS011;24367;51.640;9.566;2023-11-21T04:57:46;3.13;;;2.13;;
38609;SDS011;24367;51.640;9.566;2023-11-21T05:00:13;2.60;;;2.00;;
38609;SDS011;24367;51.640;9.566;2023-11-21T05:02:41;2.78;;;1.85;;
38609;SDS011;24367;51.640;9.566;2023-11-21T05:05:08;2.53;;;1.77;;
38609;SDS011;24367;51.640;9.566;2023-11-21T05:07:35;2.88;;;1.80;;
38609;SDS011;24367;51.640;9.566;2023-11-21T05:10:03;2.53;;;1.70;;
38609;SDS011;24367;51.640;9.566;2023-11-21T05:12:34;2.85;;;1.70;;
38609;SDS011;24367;51.640;9.566;2023-11-21T05:15:02;2.40;;;1.80;;
38609;SDS011;24367;51.640;9.566;2023-11-21T05:17:32;2.30;;;1.67;;
38609;SDS011;24367;51.640;9.566;2023-11-21T05:19:59;2.95;;;2.10;;
38609;SDS011;24367;51.640;9.566;2023-11-21T05:22:26;3.15;;;1.60;;
38609;SDS011;24367;51.640;9.566;2023-11-21T05:24:53;5.38;;;1.70;;
38609;SDS011;24367;51.640;9.566;2023-11-21T05:27:20;2.67;;;1.83;;
38609;SDS011;24367;51.640;9.566;2023-11-21T05:29:47;2.40;;;1.52;;
38609;SDS011;24367;51.640;9.566;2023-11-21T05:32:14;3.08;;;1.77;;
38609;SDS011;24367;51.640;9.566;2023-11-21T05:34:42;2.33;;;1.63;;
38609;SDS011;24367;51.640;9.566;2023-11-21T05:37:09;2.60;;;1.70;;
38609;SDS011;24367;51.640;9.566;2023-11-21T05:39:35;2.72;;;1.80;;
38609;SDS011;24367;51.640;9.566;2023-11-21T05:42:02;3.28;;;2.03;;
38609;SDS011;24367;51.640;9.566;2023-11-21T05:44:29;3.33;;;1.77;;
38609;SDS011;24367;51.640;9.566;2023-11-21T05:46:58;2.72;;;1.92;;
38609;SDS011;24367;51.640;9.566;2023-11-21T05:49:24;3.83;;;2.00;;
38609;SDS011;24367;51.640;9.566;2023-11-21T05:51:52;3.03;;;2.10;;
38609;SDS011;24367;51.640;9.566;2023-11-21T05:54:19;2.33;;;1.65;;
38609;SDS011;24367;51.640;9.566;2023-11-21T05:56:46;2.67;;;1.80;;
38609;SDS011;24367;51.640;9.566;2023-11-21T05:59:13;3.38;;;1.90;;
38609;SDS011;24367;51.640;9.566;2023-11-21T06:01:39;3.53;;;1.90;;
38609;SDS011;24367;51.640;9.566;2023-11-21T06:04:07;3.10;;;1.90;;
38609;SDS011;24367;51.640;9.566;2023-11-21T06:06:34;2.97;;;1.90;;
38609;SDS011;24367;51.640;9.566;2023-11-21T06:09:01;3.20;;;2.13;;
38609;SDS011;24367;51.640;9.566;2023-11-21T06:11:28;3.67;;;1.90;;
38609;SDS011;24367;51.640;9.566;2023-11-21T06:13:54;3.13;;;2.10;;
38609;SDS011;24367;51.640;9.566;2023-11-21T06:16:21;4.25;;;2.40;;
38609;SDS011;24367;51.640;9.566;2023-11-21T06:18:47;4.03;;;2.58;;
38609;SDS011;24367;51.640;9.566;2023-11-21T06:21:15;3.63;;;2.33;;
38609;SDS011;24367;51.640;9.566;2023-11-21T06:23:43;3.58;;;2.30;;
38609;SDS011;24367;51.640;9.566;2023-11-21T06:26:10;3.65;;;2.20;;
38609;SDS011;24367;51.640;9.566;2023-11-21T06:28:38;4.20;;;2.13;;
38609;SDS011;24367;51.640;9.566;2023-11-21T06:31:04;4.28;;;2.70;;
38609;SDS011;24367;51.640;9.566;2023-11-21T06:33:31;3.88;;;2.28;;
38609;SDS011;24367;51.640;9.566;2023-11-21T06:35:58;3.67;;;2.38;;
38609;SDS011;24367;51.640;9.566;2023-11-21T06:38:26;6.05;;;2.33;;
38609;SDS011;24367;51.640;9.566;2023-11-21T06:40:55;3.05;;;1.88;;
38609;SDS011;24367;51.640;9.566;2023-11-21T06:43:21;4.05;;;1.77;;
38609;SDS011;24367;51.640;9.566;2023-11-21T06:45:48;4.43;;;1.95;;
38609;SDS011;24367;51.640;9.566;2023-11-21T06:48:14;2.70;;;1.73;;
38609;SDS011;24367;51.640;9.566;2023-11-21T06:50:41;3.00;;;2.00;;
38609;SDS011;24367;51.640;9.566;2023-11-21T06:53:07;3.75;;;2.20;;
38609;SDS011;24367;51.640;9.566;2023-11-21T06:55:36;8.95;;;2.08;;
38609;SDS011;24367;51.640;9.566;2023-11-21T06:58:03;5.90;;;2.30;;
38609;SDS011;24367;51.640;9.566;2023-11-21T07:00:30;6.22;;;2.30;;
38609;SDS011;24367;51.640;9.566;2023-11-21T07:02:57;9.38;;;2.17;;
38609;SDS011;24367;51.640;9.566;2023-11-21T07:05:23;3.42;;;1.83;;
38609;SDS011;24367;51.640;9.566;2023-11-21T07:07:50;6.05;;;1.98;;
38609;SDS011;24367;51.640;9.566;2023-11-21T07:10:19;5.20;;;1.92;;
38609;SDS011;24367;51.640;9.566;2023-11-21T07:12:47;4.78;;;2.10;;
38609;SDS011;24367;51.640;9.566;2023-11-21T07:15:13;4.13;;;1.77;;
38609;SDS011;24367;51.640;9.566;2023-11-21T07:17:40;5.13;;;1.60;;
38609;SDS011;24367;51.640;9.566;2023-11-21T07:20:07;4.47;;;2.03;;
38609;SDS011;24367;51.640;9.566;2023-11-21T07:22:34;5.45;;;2.42;;
38609;SDS011;24367;51.640;9.566;2023-11-21T07:25:01;3.38;;;2.03;;
38609;SDS011;24367;51.640;9.566;2023-11-21T07:27:27;2.88;;;1.73;;
38609;SDS011;24367;51.640;9.566;2023-11-21T07:29:55;4.93;;;1.88;;
38609;SDS011;24367;51.640;9.566;2023-11-21T07:32:22;4.20;;;2.40;;
38609;SDS011;24367;51.640;9.566;2023-11-21T07:34:49;3.45;;;1.90;;
38609;SDS011;24367;51.640;9.566;2023-11-21T07:37:15;4.93;;;1.90;;
38609;SDS011;24367;51.640;9.566;2023-11-21T07:39:42;3.28;;;1.92;;
38609;SDS011;24367;51.640;9.566;2023-11-21T07:42:09;3.65;;;1.70;;
38609;SDS011;24367;51.640;9.566;2023-11-21T07:44:36;4.57;;;2.00;;
38609;SDS011;24367;51.640;9.566;2023-11-21T07:47:04;2.70;;;1.52;;
38609;SDS011;24367;51.640;9.566;2023-11-21T07:49:31;3.42;;;1.90;;
38609;SDS011;24367;51.640;9.566;2023-11-21T07:51:57;3.35;;;1.80;;
38609;SDS011;24367;51.640;9.566;2023-11-21T07:54:24;4.68;;;1.73;;
38609;SDS011;24367;51.640;9.566;2023-11-21T07:56:51;4.65;;;1.88;;
38609;SDS011;24367;51.640;9.566;2023-11-21T07:59:17;2.67;;;1.60;;
38609;SDS011;24367;51.640;9.566;2023-11-21T08:01:44;5.00;;;1.95;;
38609;SDS011;24367;51.640;9.566;2023-11-21T08:04:12;2.60;;;1.50;;
38609;SDS011;24367;51.640;9.566;2023-11-21T08:06:39;3.03;;;1.80;;
38609;SDS011;24367;51.640;9.566;2023-11-21T08:09:06;3.83;;;1.73;;
38609;SDS011;24367;51.640;9.566;2023-11-21T08:11:33;4.10;;;1.92;;
38609;SDS011;24367;51.640;9.566;2023-11-21T08:14:00;4.93;;;2.10;;
38609;SDS011;24367;51.640;9.566;2023-11-21T08:16:27;3.45;;;2.20;;
38609;SDS011;24367;51.640;9.566;2023-11-21T08:18:53;3.90;;;1.75;;
38609;SDS011;24367;51.640;9.566;2023-11-21T08:21:22;2.53;;;1.60;;
38609;SDS011;24367;51.640;9.566;2023-11-21T08:23:49;4.03;;;2.35;;
38609;SDS011;24367;51.640;9.566;2023-11-21T08:26:19;3.40;;;1.80;;
38609;SDS011;24367;51.640;9.566;2023-11-21T08:28:45;5.20;;;2.20;;
38609;SDS011;24367;51.640;9.566;2023-11-21T08:31:13;3.35;;;1.60;;
38609;SDS011;24367;51.640;9.566;2023-11-21T08:33:39;3.63;;;1.70;;
38609;SDS011;24367;51.640;9.566;2023-11-21T08:36:06;4.40;;;1.35;;
38609;SDS011;24367;51.640;9.566;2023-11-21T08:38:35;3.90;;;1.50;;
38609;SDS011;24367;51.640;9.566;2023-11-21T08:41:04;3.13;;;1.50;;
38609;SDS011;24367;51.640;9.566;2023-11-21T08:43:32;3.45;;;1.60;;
38609;SDS011;24367;51.640;9.566;2023-11-21T08:45:59;3.53;;;1.65;;
38609;SDS011;24367;51.640;9.566;2023-11-21T08:48:26;5.55;;;2.45;;
38609;SDS011;24367;51.640;9.566;2023-11-21T08:50:54;5.18;;;2.00;;
38609;SDS011;24367;51.640;9.566;2023-11-21T08:53:21;6.32;;;2.22;;
38609;SDS011;24367;51.640;9.566;2023-11-21T08:55:49;4.28;;;1.80;;
38609;SDS011;24367;51.640;9.566;2023-11-21T08:58:16;5.10;;;2.00;;
38609;SDS011;24367;51.640;9.566;2023-11-21T09:00:42;4.22;;;1.77;;
38609;SDS011;24367;51.640;9.566;2023-11-21T09:03:09;3.22;;;1.60;;
38609;SDS011;24367;51.640;9.566;2023-11-21T09:05:37;5.38;;;1.50;;
38609;SDS011;24367;51.640;9.566;2023-11-21T09:08:04;4.53;;;1.83;;
38609;SDS011;24367;51.640;9.566;2023-11-21T09:10:32;3.45;;;1.75;;
38609;SDS011;24367;51.640;9.566;2023-11-21T09:13:02;2.63;;;1.50;;
38609;SDS011;24367;51.640;9.566;2023-11-21T09:15:28;4.88;;;1.75;;
38609;SDS011;24367;51.640;9.566;2023-11-21T09:17:55;5.20;;;1.95;;
38609;SDS011;24367;51.640;9.566;2023-11-21T09:20:21;3.03;;;1.48;;
38609;SDS011;24367;51.640;9.566;2023-11-21T09:22:48;3.05;;;1.67;;
38609;SDS011;24367;51.640;9.566;2023-11-21T09:25:15;4.65;;;1.67;;
38609;SDS011;24367;51.640;9.566;2023-11-21T09:27:42;3.42;;;1.73;;
38609;SDS011;24367;51.640;9.566;2023-11-21T09:30:10;3.15;;;1.83;;
38609;SDS011;24367;51.640;9.566;2023-11-21T09:32:39;2.67;;;1.73;;
38609;SDS011;24367;51.640;9.566;2023-11-21T09:35:06;4.63;;;1.75;;
38609;SDS011;24367;51.640;9.566;2023-11-21T09:37:34;3.78;;;1.92;;
38609;SDS011;24367;51.640;9.566;2023-11-21T09:40:03;4.00;;;1.98;;
38609;SDS011;24367;51.640;9.566;2023-11-21T09:42:31;2.72;;;1.60;;
38609;SDS011;24367;51.640;9.566;2023-11-21T09:45:03;2.97;;;2.00;;
38609;SDS011;24367;51.640;9.566;2023-11-21T09:47:31;3.78;;;1.70;;
38609;SDS011;24367;51.640;9.566;2023-11-21T09:49:58;3.08;;;1.65;;
38609;SDS011;24367;51.640;9.566;2023-11-21T09:52:26;4.78;;;1.77;;
38609;SDS011;24367;51.640;9.566;2023-11-21T09:54:54;2.60;;;1.60;;
38609;SDS011;24367;51.640;9.566;2023-11-21T09:57:22;3.42;;;1.55;;
38609;SDS011;24367;51.640;9.566;2023-11-21T09:59:51;4.93;;;1.77;;
38609;SDS011;24367;51.640;9.566;2023-11-21T10:02:20;3.47;;;1.63;;
38609;SDS011;24367;51.640;9.566;2023-11-21T10:04:52;3.88;;;1.65;;
38609;SDS011;24367;51.640;9.566;2023-11-21T10:07:19;2.88;;;1.73;;
38609;SDS011;24367;51.640;9.566;2023-11-21T10:09:47;4.03;;;1.95;;
38609;SDS011;24367;51.640;9.566;2023-11-21T10:12:14;2.92;;;1.60;;
38609;SDS011;24367;51.640;9.566;2023-11-21T10:14:41;2.58;;;1.60;;
38609;SDS011;24367;51.640;9.566;2023-11-21T10:17:09;3.22;;;1.70;;
38609;SDS011;24367;51.640;9.566;2023-11-21T10:19:37;5.80;;;1.70;;
38609;SDS011;24367;51.640;9.566;2023-11-21T10:22:06;5.80;;;1.80;;
38609;SDS011;24367;51.640;9.566;2023-11-21T10:24:33;5.90;;;1.77;;
38609;SDS011;24367;51.640;9.566;2023-11-21T10:27:00;3.22;;;1.52;;
38609;SDS011;24367;51.640;9.566;2023-11-21T10:29:29;2.97;;;1.70;;
38609;SDS011;24367;51.640;9.566;2023-11-21T10:31:55;2.97;;;1.55;;
38609;SDS011;24367;51.640;9.566;2023-11-21T10:34:24;4.15;;;2.03;;
38609;SDS011;24367;51.640;9.566;2023-11-21T10:36:52;3.40;;;1.90;;
38609;SDS011;24367;51.640;9.566;2023-11-21T10:39:23;3.17;;;1.58;;
38609;SDS011;24367;51.640;9.566;2023-11-21T10:42:00;3.30;;;1.88;;
38609;SDS011;24367;51.640;9.566;2023-11-21T10:44:27;1.85;;;1.20;;
38609;SDS011;24367;51.640;9.566;2023-11-21T10:46:54;5.75;;;2.38;;
38609;SDS011;24367;51.640;9.566;2023-11-21T10:49:22;4.55;;;2.30;;
38609;SDS011;24367;51.640;9.566;2023-11-21T10:51:49;4.53;;;1.90;;
38609;SDS011;24367;51.640;9.566;2023-11-21T10:54:18;2.65;;;1.70;;
38609;SDS011;24367;51.640;9.566;2023-11-21T10:56:47;4.30;;;2.00;;
38609;SDS011;24367;51.640;9.566;2023-11-21T10:59:16;2.90;;;1.83;;
38609;SDS011;24367;51.640;9.566;2023-11-21T11:01:44;2.67;;;1.75;;
38609;SDS011;24367;51.640;9.566;2023-11-21T11:04:11;2.65;;;1.73;;
38609;SDS011;24367;51.640;9.566;2023-11-21T11:06:44;16.15;;;2.58;;
38609;SDS011;24367;51.640;9.566;2023-11-21T11:09:12;2.88;;;1.63;;
38609;SDS011;24367;51.640;9.566;2023-11-21T11:11:41;2.55;;;1.75;;
38609;SDS011;24367;51.640;9.566;2023-11-21T11:14:11;3.58;;;1.90;;
38609;SDS011;24367;51.640;9.566;2023-11-21T11:16:38;2.67;;;1.65;;
38609;SDS011;24367;51.640;9.566;2023-11-21T11:19:06;3.67;;;1.45;;
38609;SDS011;24367;51.640;9.566;2023-11-21T11:21:35;3.28;;;1.80;;
38609;SDS011;24367;51.640;9.566;2023-11-21T11:24:15;2.90;;;1.65;;
38609;SDS011;24367;51.640;9.566;2023-11-21T11:26:50;4.28;;;1.63;;
38609;SDS011;24367;51.640;9.566;2023-11-21T11:29:26;2.63;;;1.70;;
38609;SDS011;24367;51.640;9.566;2023-11-21T11:32:00;4.72;;;1.67;;
38609;SDS011;24367;51.640;9.566;2023-11-21T11:34:32;3.33;;;2.05;;
38609;SDS011;24367;51.640;9.566;2023-11-21T11:37:02;2.92;;;1.77;;
38609;SDS011;24367;51.640;9.566;2023-11-21T11:39:30;3.40;;;1.70;;
38609;SDS011;24367;51.640;9.566;2023-11-21T11:41:58;2.90;;;1.52;;
38609;SDS011;24367;51.640;9.566;2023-11-21T11:47:20;2.40;;;1.70;;
38609;SDS011;24367;51.640;9.566;2023-11-21T11:49:57;2.58;;;1.60;;
38609;SDS011;24367;51.640;9.566;2023-11-21T11:52:38;2.92;;;1.50;;
38609;SDS011;24367;51.640;9.566;2023-11-21T11:55:06;2.25;;;1.52;;
38609;SDS011;24367;51.640;9.566;2023-11-21T11:57:36;2.03;;;1.50;;
38609;SDS011;24367;51.640;9.566;2023-11-21T12:00:08;4.38;;;1.67;;
38609;SDS011;24367;51.640;9.566;2023-11-21T12:02:36;3.08;;;1.50;;
38609;SDS011;24367;51.640;9.566;2023-11-21T12:05:07;2.20;;;1.35;;
38609;SDS011;24367;51.640;9.566;2023-11-21T12:07:48;2.83;;;1.60;;
38609;SDS011;24367;51.640;9.566;2023-11-21T12:10:18;5.28;;;1.85;;
38609;SDS011;24367;51.640;9.566;2023-11-21T12:12:46;3.70;;;1.80;;
38609;SDS011;24367;51.640;9.566;2023-11-21T12:15:15;4.28;;;1.70;;
38609;SDS011;24367;51.640;9.566;2023-11-21T12:17:42;2.97;;;2.05;;
38609;SDS011;24367;51.640;9.566;2023-11-21T12:20:10;4.95;;;2.30;;
38609;SDS011;24367;51.640;9.566;2023-11-21T12:22:43;5.05;;;2.00;;
38609;SDS011;24367;51.640;9.566;2023-11-21T12:25:13;4.18;;;3.30;;
38609;SDS011;24367;51.640;9.566;2023-11-21T12:27:41;4.47;;;3.03;;
38609;SDS011;24367;51.640;9.566;2023-11-21T12:30:10;4.93;;;3.13;;
38609;SDS011;24367;51.640;9.566;2023-11-21T12:32:42;5.43;;;3.38;;
38609;SDS011;24367;51.640;9.566;2023-11-21T12:35:09;5.10;;;2.70;;
38609;SDS011;24367;51.640;9.566;2023-11-21T12:37:36;6.45;;;3.80;;
38609;SDS011;24367;51.640;9.566;2023-11-21T12:40:04;8.18;;;5.00;;
38609;SDS011;24367;51.640;9.566;2023-11-21T12:42:33;11.70;;;5.72;;
38609;SDS011;24367;51.640;9.566;2023-11-21T12:45:07;8.27;;;5.75;;
38609;SDS011;24367;51.640;9.566;2023-11-21T12:47:44;7.03;;;4.43;;
38609;SDS011;24367;51.640;9.566;2023-11-21T12:50:10;7.50;;;4.63;;
38609;SDS011;24367;51.640;9.566;2023-11-21T12:52:40;7.10;;;4.72;;
38609;SDS011;24367;51.640;9.566;2023-11-21T12:55:09;7.10;;;3.97;;
38609;SDS011;24367;51.640;9.566;2023-11-21T12:57:41;6.20;;;3.10;;
38609;SDS011;24367;51.640;9.566;2023-11-21T13:00:09;5.20;;;3.28;;
38609;SDS011;24367;51.640;9.566;2023-11-21T13:02:40;4.45;;;3.15;;
38609;SDS011;24367;51.640;9.566;2023-11-21T13:05:09;4.88;;;3.28;;
38609;SDS011;24367;51.640;9.566;2023-11-21T13:07:46;5.45;;;2.75;;
38609;SDS011;24367;51.640;9.566;2023-11-21T13:10:14;3.95;;;2.72;;
38609;SDS011;24367;51.640;9.566;2023-11-21T13:12:42;7.60;;;2.95;;
38609;SDS011;24367;51.640;9.566;2023-11-21T13:15:13;5.97;;;2.70;;
38609;SDS011;24367;51.640;9.566;2023-11-21T13:17:42;4.13;;;2.72;;
38609;SDS011;24367;51.640;9.566;2023-11-21T13:20:11;4.50;;;2.72;;
38609;SDS011;24367;51.640;9.566;2023-11-21T13:22:44;3.58;;;2.55;;
38609;SDS011;24367;51.640;9.566;2023-11-21T13:25:12;3.85;;;2.50;;
38609;SDS011;24367;51.640;9.566;2023-11-21T13:27:39;4.30;;;2.60;;
38609;SDS011;24367;51.640;9.566;2023-11-21T13:30:08;4.88;;;2.53;;
38609;SDS011;24367;51.640;9.566;2023-11-21T13:32:36;5.90;;;2.38;;
38609;SDS011;24367;51.640;9.566;2023-11-21T13:35:02;4.95;;;2.50;;
38609;SDS011;24367;51.640;9.566;2023-11-21T13:37:34;5.05;;;2.15;;
38609;SDS011;24367;51.640;9.566;2023-11-21T13:40:01;5.22;;;2.30;;
38609;SDS011;24367;51.640;9.566;2023-11-21T13:42:35;5.15;;;2.38;;
38609;SDS011;24367;51.640;9.566;2023-11-21T13:45:01;4.40;;;2.17;;
38609;SDS011;24367;51.640;9.566;2023-11-21T13:47:30;3.70;;;1.95;;
38609;SDS011;24367;51.640;9.566;2023-11-21T13:49:58;6.68;;;2.50;;
38609;SDS011;24367;51.640;9.566;2023-11-21T13:52:25;3.20;;;2.20;;
38609;SDS011;24367;51.640;9.566;2023-11-21T13:54:54;7.05;;;2.63;;
38609;SDS011;24367;51.640;9.566;2023-11-21T13:57:21;4.85;;;1.98;;
38609;SDS011;24367;51.640;9.566;2023-11-21T13:59:48;3.05;;;1.80;;
38609;SDS011;24367;51.640;9.566;2023-11-21T14:02:14;5.45;;;2.45;;
38609;SDS011;24367;51.640;9.566;2023-11-21T14:04:43;4.00;;;2.08;;
38609;SDS011;24367;51.640;9.566;2023-11-21T14:07:19;3.30;;;2.13;;
38609;SDS011;24367;51.640;9.566;2023-11-21T14:09:57;8.13;;;2.20;;
38609;SDS011;24367;51.640;9.566;2023-11-21T14:12:23;8.93;;;2.60;;
38609;SDS011;24367;51.640;9.566;2023-11-21T14:14:50;4.00;;;1.83;;
38609;SDS011;24367;51.640;9.566;2023-11-21T14:17:16;3.67;;;2.10;;
38609;SDS011;24367;51.640;9.566;2023-11-21T14:19:43;3.60;;;2.15;;
38609;SDS011;24367;51.640;9.566;2023-11-21T14:22:09;5.80;;;2.22;;
38609;SDS011;24367;51.640;9.566;2023-11-21T14:24:36;8.18;;;2.17;;
38609;SDS011;24367;51.640;9.566;2023-11-21T14:27:08;5.53;;;1.92;;
38609;SDS011;24367;51.640;9.566;2023-11-21T14:29:35;5.25;;;2.20;;
38609;SDS011;24367;51.640;9.566;2023-11-21T14:32:04;2.83;;;1.90;;
38609;SDS011;24367;51.640;9.566;2023-11-21T14:34:31;4.93;;;1.77;;
38609;SDS011;24367;51.640;9.566;2023-11-21T14:36:58;4.10;;;1.95;;
38609;SDS011;24367;51.640;9.566;2023-11-21T14:39:24;4.60;;;1.95;;
38609;SDS011;24367;51.640;9.566;2023-11-21T14:41:53;3.92;;;1.98;;
38609;SDS011;24367;51.640;9.566;2023-11-21T14:44:22;2.58;;;1.58;;
38609;SDS011;24367;51.640;9.566;2023-11-21T14:46:54;2.90;;;1.70;;
38609;SDS011;24367;51.640;9.566;2023-11-21T14:49:21;3.63;;;2.03;;
38609;SDS011;24367;51.640;9.566;2023-11-21T14:51:51;4.38;;;2.10;;
38609;SDS011;24367;51.640;9.566;2023-11-21T14:57:05;8.82;;;1.75;;